Terminal Aerodrome Forecast
Issued by NWS

Home | Current Version | Previous Version | Text Only | Print | Product List | Glossary On
Versions: 1 2 3 4 5 6 7 8 9 10 11 12 13 14 15 16 17 18 19 20
000
FTUS44 KLIX 192324
TAFMSY
TAF
KMSY 192324Z 2000/2024 14010KT P6SM FEW030 BKN250
     FM200600 12006KT P6SM BKN015
     FM200800 12006KT P6SM BKN003
     FM201400 12006KT P6SM BKN008
     FM201700 12008KT P6SM BKN050=

USA.gov is the U.S. government's official web portal to all federal, state and local government web resources and services.